Time;durP1;ratioP1;P1;durP2;ratioP2;P2;SDS_P1;SDS_P2;PMS_P1;PMS_P2;Temp;Humidity;BMP_temperature;BMP_pressure;BME280_temperature;BME280_humidity;BME280_pressure;Samples;Min_cycle;Max_cycle;Signal;HPM_P1;HPM_P2
2021/03/24 00:00:12;;;;;;;3.28;2.60;;;;;;;;;;5129711;27;20043;-68
2021/03/24 00:02:38;;;;;;;5.55;3.70;;;;;;;;;;5131110;27;20027;-68
2021/03/24 00:05:14;;;;;;;3.03;2.63;;;;;;;;;;5111834;28;20023;-68
2021/03/24 00:07:41;;;;;;;3.40;3.10;;;;;;;;;;5130765;27;20034;-68
2021/03/24 00:10:08;;;;;;;5.00;3.70;;;;;;;;;;5129913;28;20038;-67
2021/03/24 00:12:35;;;;;;;3.63;3.30;;;;;;;;;;5130716;28;20065;-68
2021/03/24 00:15:01;;;;;;;4.22;3.05;;;;;;;;;;5123546;28;20020;-68
2021/03/24 00:17:28;;;;;;;5.65;3.00;;;;;;;;;;5110661;28;20024;-68
2021/03/24 00:19:54;;;;;;;3.20;2.80;;;;;;;;;;5114506;28;20023;-68
2021/03/24 00:22:20;;;;;;;3.33;2.55;;;;;;;;;;5113865;28;20032;-68
2021/03/24 00:24:46;;;;;;;3.28;2.97;;;;;;;;;;5114471;28;20023;-68
2021/03/24 00:27:12;;;;;;;4.07;3.50;;;;;;;;;;5113554;28;20169;-68
2021/03/24 00:29:38;;;;;;;4.38;2.72;;;;;;;;;;5114254;28;20134;-68
2021/03/24 00:32:04;;;;;;;3.67;2.80;;;;;;;;;;5113354;28;20028;-68
2021/03/24 00:34:30;;;;;;;3.45;3.00;;;;;;;;;;5114305;28;20352;-68
2021/03/24 00:36:56;;;;;;;2.67;2.47;;;;;;;;;;5113819;28;20031;-68
2021/03/24 00:39:22;;;;;;;3.65;2.83;;;;;;;;;;5113984;28;20119;-68
2021/03/24 00:41:48;;;;;;;6.53;3.35;;;;;;;;;;5114149;28;20363;-68
2021/03/24 00:44:15;;;;;;;3.13;2.72;;;;;;;;;;5113624;28;20061;-68
2021/03/24 00:46:41;;;;;;;4.18;2.45;;;;;;;;;;5113864;28;20454;-68
2021/03/24 00:49:07;;;;;;;2.92;2.33;;;;;;;;;;5113123;28;20027;-68
2021/03/24 00:51:33;;;;;;;2.28;2.08;;;;;;;;;;5114040;28;20107;-68
2021/03/24 00:53:59;;;;;;;5.00;3.03;;;;;;;;;;5113623;28;20031;-68
2021/03/24 00:56:25;;;;;;;4.03;2.90;;;;;;;;;;5114114;28;20028;-68
2021/03/24 00:58:51;;;;;;;3.05;2.40;;;;;;;;;;5114760;27;20055;-68
2021/03/24 01:01:18;;;;;;;3.92;2.70;;;;;;;;;;5112855;28;20047;-68
2021/03/24 01:03:44;;;;;;;1.90;1.80;;;;;;;;;;5113056;28;20459;-68
2021/03/24 01:06:10;;;;;;;3.13;2.38;;;;;;;;;;5112787;28;20110;-68
2021/03/24 01:08:36;;;;;;;2.80;2.60;;;;;;;;;;5113771;28;20027;-68
2021/03/24 01:11:03;;;;;;;4.28;2.45;;;;;;;;;;5112680;28;20059;-69
2021/03/24 01:13:29;;;;;;;4.18;2.15;;;;;;;;;;5113646;28;20031;-68
2021/03/24 01:15:56;;;;;;;2.50;2.20;;;;;;;;;;5113297;28;20030;-68
2021/03/24 01:18:23;;;;;;;3.05;2.30;;;;;;;;;;5112993;28;20088;-68
2021/03/24 01:20:49;;;;;;;4.45;2.25;;;;;;;;;;5113202;28;20076;-68
2021/03/24 01:23:15;;;;;;;2.60;2.40;;;;;;;;;;5112688;28;20520;-68
2021/03/24 01:25:41;;;;;;;2.45;2.25;;;;;;;;;;5113202;28;20096;-68
2021/03/24 01:28:09;;;;;;;3.17;2.55;;;;;;;;;;5112262;28;20088;-68
2021/03/24 01:30:36;;;;;;;1.80;1.67;;;;;;;;;;5112198;28;20431;-68
2021/03/24 01:33:02;;;;;;;4.25;2.33;;;;;;;;;;5112497;28;20393;-68
2021/03/24 01:35:28;;;;;;;12.32;7.25;;;;;;;;;;5113043;28;20023;-68
2021/03/24 01:37:55;;;;;;;11.68;9.35;;;;;;;;;;5117098;27;20470;-68
2021/03/24 01:40:50;;;;;;;6.93;5.93;;;;;;;;;;5133002;27;20035;-68
2021/03/24 01:43:21;;;;;;;4.75;4.10;;;;;;;;;;5100646;27;20042;-68
2021/03/24 01:46:05;;;;;;;3.42;2.88;;;;;;;;;;5133793;27;20031;-68
2021/03/24 01:48:32;;;;;;;2.55;2.35;;;;;;;;;;5133650;27;20031;-68
2021/03/24 01:50:58;;;;;;;4.55;3.08;;;;;;;;;;5132633;27;20039;-68
2021/03/24 01:53:24;;;;;;;4.25;2.85;;;;;;;;;;5133150;27;20042;-68
2021/03/24 01:55:50;;;;;;;2.58;2.28;;;;;;;;;;5133563;27;20043;-68
2021/03/24 01:58:16;;;;;;;4.03;2.63;;;;;;;;;;5132433;27;20116;-68
2021/03/24 02:00:44;;;;;;;2.45;2.25;;;;;;;;;;5114257;27;20126;-68
2021/03/24 02:03:11;;;;;;;2.50;2.20;;;;;;;;;;5132501;27;20495;-68
2021/03/24 02:05:37;;;;;;;4.13;2.38;;;;;;;;;;5133519;27;20134;-68
2021/03/24 02:08:11;;;;;;;3.30;2.45;;;;;;;;;;5132683;27;20524;-68
2021/03/24 02:10:37;;;;;;;2.75;2.35;;;;;;;;;;5124365;27;20497;-68
2021/03/24 02:13:09;;;;;;;2.72;2.53;;;;;;;;;;5132048;27;20065;-68
2021/03/24 02:15:40;;;;;;;2.03;1.92;;;;;;;;;;5121437;27;20023;-68
2021/03/24 02:18:08;;;;;;;5.55;3.30;;;;;;;;;;5111737;28;20031;-67
2021/03/24 02:20:36;;;;;;;3.10;2.20;;;;;;;;;;5111963;28;20024;-68
2021/03/24 02:23:25;;;;;;;2.40;2.20;;;;;;;;;;5111823;28;20459;-68
2021/03/24 02:25:53;;;;;;;2.38;2.28;;;;;;;;;;5099512;28;20071;-68
2021/03/24 02:28:20;;;;;;;2.25;2.05;;;;;;;;;;5111281;28;20578;-68
2021/03/24 02:30:47;;;;;;;3.10;2.47;;;;;;;;;;5111922;28;20119;-68
2021/03/24 02:33:24;;;;;;;3.05;2.10;;;;;;;;;;5111133;28;20592;-68
2021/03/24 02:35:52;;;;;;;2.60;2.15;;;;;;;;;;5112038;28;20100;-68
2021/03/24 02:38:20;;;;;;;3.45;1.85;;;;;;;;;;5111673;28;20031;-68
2021/03/24 02:40:46;;;;;;;3.88;1.85;;;;;;;;;;5111141;28;20081;-68
2021/03/24 02:43:13;;;;;;;2.20;2.00;;;;;;;;;;5110507;28;20110;-68
2021/03/24 02:45:41;;;;;;;2.72;2.53;;;;;;;;;;5111771;28;20027;-68
2021/03/24 02:48:10;;;;;;;5.25;2.65;;;;;;;;;;5111160;28;20024;-68
2021/03/24 02:50:37;;;;;;;2.45;2.20;;;;;;;;;;5111664;28;20114;-68
2021/03/24 02:53:04;;;;;;;1.75;1.58;;;;;;;;;;5111040;28;20024;-68
2021/03/24 02:55:32;;;;;;;4.28;1.45;;;;;;;;;;5111446;28;20490;-68
2021/03/24 02:57:58;;;;;;;1.92;1.80;;;;;;;;;;5111031;28;20076;-68
2021/03/24 03:00:25;;;;;;;2.28;2.08;;;;;;;;;;5112411;27;20082;-68
2021/03/24 03:02:56;;;;;;;3.47;2.25;;;;;;;;;;5111222;28;20020;-68
2021/03/24 03:05:33;;;;;;;2.33;1.85;;;;;;;;;;5110868;28;20123;-68
2021/03/24 03:08:05;;;;;;;2.20;2.00;;;;;;;;;;5111229;28;20057;-68
2021/03/24 03:10:37;;;;;;;1.90;1.75;;;;;;;;;;5111331;28;20035;-68
2021/03/24 03:13:10;;;;;;;2.17;1.88;;;;;;;;;;5110570;28;20098;-68
2021/03/24 03:15:44;;;;;;;4.47;3.25;;;;;;;;;;5111577;28;20141;-68
2021/03/24 03:18:15;;;;;;;2.92;2.40;;;;;;;;;;5110517;28;20023;-68
2021/03/24 03:20:46;;;;;;;2.47;2.13;;;;;;;;;;5111202;28;20020;-68
2021/03/24 03:23:17;;;;;;;2.17;1.95;;;;;;;;;;5110181;28;20024;-68
2021/03/24 03:25:46;;;;;;;2.63;1.92;;;;;;;;;;5111495;28;20024;-68
2021/03/24 03:28:15;;;;;;;1.77;1.67;;;;;;;;;;5110255;28;20024;-68
2021/03/24 03:30:42;;;;;;;2.33;2.10;;;;;;;;;;5110876;28;20553;-68
2021/03/24 03:33:11;;;;;;;1.35;1.25;;;;;;;;;;5110521;28;20038;-68
2021/03/24 03:35:38;;;;;;;1.95;1.85;;;;;;;;;;5110754;28;20032;-68
2021/03/24 03:38:06;;;;;;;1.95;1.58;;;;;;;;;;5110113;28;20020;-68
2021/03/24 03:40:34;;;;;;;1.65;1.52;;;;;;;;;;5130595;27;20092;-68
2021/03/24 03:43:02;;;;;;;2.25;2.05;;;;;;;;;;5131146;27;20023;-68
2021/03/24 03:45:28;;;;;;;1.30;1.20;;;;;;;;;;5131603;27;20046;-68
2021/03/24 03:47:54;;;;;;;1.90;1.77;;;;;;;;;;5131160;27;20530;-67
2021/03/24 03:50:22;;;;;;;2.33;1.90;;;;;;;;;;5130887;27;20039;-68
2021/03/24 03:52:51;;;;;;;1.63;1.52;;;;;;;;;;5130662;27;20042;-68
2021/03/24 03:55:20;;;;;;;1.58;1.42;;;;;;;;;;5130625;27;20041;-68
2021/03/24 03:58:25;;;;;;;1.85;1.63;;;;;;;;;;5131109;27;20145;-68
2021/03/24 04:00:54;;;;;;;1.65;1.27;;;;;;;;;;5027626;28;20037;-68
2021/03/24 04:03:22;;;;;;;1.90;1.45;;;;;;;;;;5027265;28;20038;-68
2021/03/24 04:05:50;;;;;;;2.28;1.83;;;;;;;;;;5080360;27;20047;-68
2021/03/24 04:08:20;;;;;;;2.08;1.98;;;;;;;;;;5130278;28;20073;-68
2021/03/24 04:10:56;;;;;;;2.80;2.30;;;;;;;;;;5130763;28;20393;-68
2021/03/24 04:13:25;;;;;;;3.40;1.95;;;;;;;;;;5130751;28;20046;-68
2021/03/24 04:15:52;;;;;;;2.00;1.40;;;;;;;;;;5117147;28;20023;-68
2021/03/24 04:18:24;;;;;;;1.92;1.42;;;;;;;;;;5109852;28;20044;-68
2021/03/24 04:20:51;;;;;;;6.15;2.35;;;;;;;;;;5110018;28;20570;-68
2021/03/24 04:23:19;;;;;;;2.03;1.70;;;;;;;;;;5109353;28;20078;-68
2021/03/24 04:25:45;;;;;;;3.88;2.72;;;;;;;;;;5110244;28;20502;-68
2021/03/24 04:28:13;;;;;;;3.70;2.10;;;;;;;;;;5109303;28;20028;-68
2021/03/24 04:30:48;;;;;;;3.17;2.33;;;;;;;;;;5110105;28;20093;-68
2021/03/24 04:33:14;;;;;;;2.00;1.80;;;;;;;;;;5109437;28;20112;-68
2021/03/24 04:35:40;;;;;;;1.20;1.10;;;;;;;;;;5110231;28;20015;-68
2021/03/24 04:38:16;;;;;;;3.17;1.30;;;;;;;;;;5109730;28;20032;-68
2021/03/24 04:40:48;;;;;;;1.98;1.80;;;;;;;;;;5110086;28;20069;-68
2021/03/24 04:43:17;;;;;;;2.30;2.10;;;;;;;;;;5109451;28;20027;-68
2021/03/24 04:46:09;;;;;;;1.50;1.40;;;;;;;;;;5109929;28;20494;-68
2021/03/24 04:48:42;;;;;;;1.55;1.45;;;;;;;;;;5106262;28;20490;-68
2021/03/24 04:51:11;;;;;;;2.53;1.37;;;;;;;;;;5108785;28;20035;-68
2021/03/24 04:53:39;;;;;;;1.33;1.25;;;;;;;;;;5109982;28;20116;-68
2021/03/24 04:56:06;;;;;;;1.70;1.60;;;;;;;;;;5109598;28;20436;-68
2021/03/24 04:58:35;;;;;;;2.08;1.67;;;;;;;;;;5111131;27;20028;-68
2021/03/24 05:01:14;;;;;;;2.45;1.45;;;;;;;;;;5109081;28;20023;-68
2021/03/24 05:03:42;;;;;;;2.67;2.47;;;;;;;;;;5110078;28;20454;-68
2021/03/24 05:06:12;;;;;;;1.63;1.50;;;;;;;;;;5112381;28;20035;-68
2021/03/24 05:08:42;;;;;;;1.83;1.42;;;;;;;;;;5113932;28;20077;-68
2021/03/24 05:11:16;;;;;;;3.65;2.00;;;;;;;;;;5112625;28;20447;-68
2021/03/24 05:13:42;;;;;;;;;;;;;;;;;;5114247;28;20589;-68
2021/03/24 05:16:16;;;;;;;1.80;1.67;;;;;;;;;;5112830;28;19966;-68
2021/03/24 05:18:42;;;;;;;;;;;;;;;;;;5113879;28;20122;-68
2021/03/24 05:21:11;;;;;;;1.35;1.23;;;;;;;;;;5112449;28;19939;-68
2021/03/24 05:23:37;;;;;;;1.55;1.45;;;;;;;;;;5113283;28;20042;-68
2021/03/24 05:26:05;;;;;;;2.60;2.40;;;;;;;;;;5112579;28;20081;-68
2021/03/24 05:28:41;;;;;;;1.73;1.48;;;;;;;;;;5113135;28;20030;-68
2021/03/24 05:31:09;;;;;;;2.05;1.48;;;;;;;;;;5112594;28;20367;-68
2021/03/24 05:33:40;;;;;;;2.42;1.98;;;;;;;;;;5113290;28;20598;-68
2021/03/24 05:36:25;;;;;;;1.58;1.48;;;;;;;;;;5112230;28;20516;-68
2021/03/24 05:38:53;;;;;;;1.98;1.52;;;;;;;;;;5125406;27;20434;-68
2021/03/24 05:41:19;;;;;;;1.50;1.17;;;;;;;;;;5132837;27;20142;-68
2021/03/24 05:44:06;;;;;;;1.40;1.30;;;;;;;;;;5133541;27;20051;-68
2021/03/24 05:46:41;;;;;;;2.05;1.80;;;;;;;;;;5133184;27;20023;-68
2021/03/24 05:49:14;;;;;;;1.63;1.30;;;;;;;;;;5132273;27;20397;-68
2021/03/24 05:51:58;;;;;;;1.85;1.17;;;;;;;;;;5132977;27;20052;-68
2021/03/24 05:54:24;;;;;;;2.15;1.90;;;;;;;;;;5133209;27;20550;-68
2021/03/24 05:56:53;;;;;;;2.47;2.25;;;;;;;;;;5133306;27;20023;-68
2021/03/24 05:59:36;;;;;;;2.78;1.35;;;;;;;;;;5131812;27;20053;-68
2021/03/24 06:02:08;;;;;;;1.40;1.30;;;;;;;;;;5132490;27;20073;-68
2021/03/24 06:04:42;;;;;;;2.58;1.48;;;;;;;;;;5133015;27;20031;-68
2021/03/24 06:07:08;;;;;;;;;;;;;;;;;;5132916;27;20042;-68
2021/03/24 06:09:43;;;;;;;1.50;1.38;;;;;;;;;;5132696;27;19911;-68
2021/03/24 06:12:15;;;;;;;1.65;1.55;;;;;;;;;;5132125;27;20103;-68
2021/03/24 06:14:47;;;;;;;1.98;1.73;;;;;;;;;;5132678;27;20030;-68
2021/03/24 06:17:25;;;;;;;1.95;1.25;;;;;;;;;;5131982;27;20031;-68
2021/03/24 06:20:10;;;;;;;1.48;1.38;;;;;;;;;;5132701;27;20031;-68
2021/03/24 06:22:36;;;;;;;3.78;1.88;;;;;;;;;;5132832;27;20517;-68
2021/03/24 06:25:08;;;;;;;1.58;1.42;;;;;;;;;;5132203;27;20028;-68
2021/03/24 06:28:10;;;;;;;2.70;1.23;;;;;;;;;;5114109;27;20442;-68
2021/03/24 06:30:51;;;;;;;2.70;0.98;;;;;;;;;;5029110;28;20038;-68
2021/03/24 06:33:36;;;;;;;1.90;1.30;;;;;;;;;;5121140;27;20039;-68
2021/03/24 06:36:02;;;;;;;1.95;1.38;;;;;;;;;;5131799;27;20029;-68
2021/03/24 06:38:51;;;;;;;1.20;1.10;;;;;;;;;;5132559;27;20115;-68
2021/03/24 06:41:35;;;;;;;2.15;1.48;;;;;;;;;;5082181;27;20520;-68
2021/03/24 06:44:04;;;;;;;1.48;1.38;;;;;;;;;;5132029;27;20486;-67
2021/03/24 06:46:37;;;;;;;2.42;1.88;;;;;;;;;;5128033;27;20027;-68
2021/03/24 06:49:05;;;;;;;2.13;1.92;;;;;;;;;;5123284;27;20019;-68
2021/03/24 06:51:50;;;;;;;2.05;1.85;;;;;;;;;;5131470;27;20037;-68
2021/03/24 06:54:23;;;;;;;3.47;1.80;;;;;;;;;;5110496;28;20035;-68
2021/03/24 06:56:58;;;;;;;1.43;1.33;;;;;;;;;;5111488;28;20459;-68
2021/03/24 06:59:43;;;;;;;1.60;1.23;;;;;;;;;;5101805;27;20317;-68
2021/03/24 07:02:15;;;;;;;1.83;1.10;;;;;;;;;;5100640;28;20028;-68
2021/03/24 07:05:10;;;;;;;2.33;1.67;;;;;;;;;;5109836;28;20024;-68
2021/03/24 07:07:49;;;;;;;2.00;1.40;;;;;;;;;;5038060;28;20037;-68
2021/03/24 07:10:24;;;;;;;2.88;1.90;;;;;;;;;;5110097;28;20136;-68
2021/03/24 07:13:08;;;;;;;2.47;2.25;;;;;;;;;;5111223;28;20051;-68
2021/03/24 07:15:41;;;;;;;2.15;1.50;;;;;;;;;;5110750;28;20019;-68
2021/03/24 07:18:12;;;;;;;3.70;2.70;;;;;;;;;;5097968;28;20035;-67
2021/03/24 07:20:38;;;;;;;1.65;1.55;;;;;;;;;;5089870;28;20126;-68
2021/03/24 07:23:23;;;;;;;10.75;3.30;;;;;;;;;;5088233;28;20058;-67
2021/03/24 07:26:08;;;;;;;3.47;1.52;;;;;;;;;;5088961;28;20450;-68
2021/03/24 07:28:34;;;;;;;2.63;1.75;;;;;;;;;;5103606;28;20024;-68
2021/03/24 07:31:09;;;;;;;4.40;2.20;;;;;;;;;;5107344;28;20035;-66
2021/03/24 07:33:44;;;;;;;4.18;2.78;;;;;;;;;;5109294;28;20035;-68
2021/03/24 07:36:35;;;;;;;2.25;1.83;;;;;;;;;;5103858;28;20032;-67
2021/03/24 07:39:04;;;;;;;3.88;1.92;;;;;;;;;;5089098;28;20055;-67
2021/03/24 07:41:33;;;;;;;3.25;2.33;;;;;;;;;;5102431;28;20107;-67
2021/03/24 07:43:59;;;;;;;4.90;4.15;;;;;;;;;;5099622;28;20547;-68
2021/03/24 07:46:44;;;;;;;3.80;3.38;;;;;;;;;;5108022;28;20023;-67
2021/03/24 07:49:36;;;;;;;2.78;2.30;;;;;;;;;;5101698;28;20048;-67
2021/03/24 07:52:13;;;;;;;4.40;3.28;;;;;;;;;;5103263;28;20063;-67
2021/03/24 07:54:53;;;;;;;2.40;2.08;;;;;;;;;;5106622;28;20032;-67
2021/03/24 07:57:31;;;;;;;2.47;2.28;;;;;;;;;;5101602;28;20632;-67
2021/03/24 07:59:57;;;;;;;2.70;2.50;;;;;;;;;;5120884;27;20386;-68
2021/03/24 08:02:42;;;;;;;4.25;3.30;;;;;;;;;;5125126;27;20027;-68
2021/03/24 08:05:28;;;;;;;5.55;2.72;;;;;;;;;;5119896;27;20030;-68
2021/03/24 08:08:00;;;;;;;2.28;1.88;;;;;;;;;;5115360;27;20027;-68
2021/03/24 08:10:40;;;;;;;5.75;3.35;;;;;;;;;;5115895;28;20078;-68
2021/03/24 08:13:17;;;;;;;3.92;2.22;;;;;;;;;;5113574;28;20039;-68
2021/03/24 08:16:02;;;;;;;2.38;1.88;;;;;;;;;;5117580;28;20031;-68
2021/03/24 08:18:28;;;;;;;2.13;1.92;;;;;;;;;;5119368;28;20047;-68
2021/03/24 08:21:16;;;;;;;2.50;2.08;;;;;;;;;;5098866;28;20058;-68
2021/03/24 08:23:42;;;;;;;2.75;1.88;;;;;;;;;;5116084;28;20035;-68
2021/03/24 08:26:08;;;;;;;2.47;2.28;;;;;;;;;;5116168;28;20048;-67
2021/03/24 08:28:34;;;;;;;2.83;1.77;;;;;;;;;;5117902;28;20039;-68
2021/03/24 08:31:06;;;;;;;2.45;1.65;;;;;;;;;;5117526;28;20186;-67
2021/03/24 08:33:54;;;;;;;1.85;1.58;;;;;;;;;;5105399;28;20042;-68
2021/03/24 08:36:26;;;;;;;1.63;1.52;;;;;;;;;;5105193;27;20027;-67
2021/03/24 08:38:55;;;;;;;1.90;1.80;;;;;;;;;;5107880;27;20534;-68
2021/03/24 08:41:36;;;;;;;3.28;2.67;;;;;;;;;;5110702;27;20122;-67
2021/03/24 08:44:02;;;;;;;2.13;2.03;;;;;;;;;;5109448;27;20077;-67
2021/03/24 08:46:35;;;;;;;1.83;1.67;;;;;;;;;;5109501;27;20035;-67
2021/03/24 08:49:04;;;;;;;2.03;1.83;;;;;;;;;;5109381;27;20051;-68
2021/03/24 08:51:33;;;;;;;1.77;1.67;;;;;;;;;;5110355;27;20065;-68
2021/03/24 08:54:19;;;;;;;1.70;1.60;;;;;;;;;;5108002;27;20043;-67
2021/03/24 08:56:50;;;;;;;9.25;2.85;;;;;;;;;;5053636;27;20043;-68
2021/03/24 08:59:19;;;;;;;1.67;1.45;;;;;;;;;;5104687;27;20495;-68
2021/03/24 09:02:00;;;;;;;2.42;1.35;;;;;;;;;;5109657;27;20036;-68
2021/03/24 09:04:46;;;;;;;2.00;1.83;;;;;;;;;;5108865;27;20051;-68
2021/03/24 09:07:21;;;;;;;2.63;1.35;;;;;;;;;;5081176;27;20128;-67
2021/03/24 09:10:06;;;;;;;3.40;2.08;;;;;;;;;;5111053;27;20035;-68
2021/03/24 09:12:37;;;;;;;2.70;1.92;;;;;;;;;;5106642;27;20031;-67
2021/03/24 09:15:22;;;;;;;4.53;1.75;;;;;;;;;;5109320;27;20188;-67
2021/03/24 09:17:56;;;;;;;5.05;1.88;;;;;;;;;;5109749;27;20409;-68
2021/03/24 09:20:43;;;;;;;2.03;1.48;;;;;;;;;;5109496;27;20051;-68
2021/03/24 09:23:27;;;;;;;3.47;1.85;;;;;;;;;;5109029;27;20043;-68
2021/03/24 09:26:08;;;;;;;2.38;1.67;;;;;;;;;;5106874;27;20027;-68
2021/03/24 09:28:53;;;;;;;2.10;2.00;;;;;;;;;;5109083;27;20082;-68
2021/03/24 09:31:19;;;;;;;1.25;1.15;;;;;;;;;;5108879;27;20043;-68
2021/03/24 09:34:11;;;;;;;4.13;1.70;;;;;;;;;;5108954;27;20027;-68
2021/03/24 09:36:45;;;;;;;7.43;2.13;;;;;;;;;;5090609;27;20541;-69
2021/03/24 09:39:17;;;;;;;1.85;1.63;;;;;;;;;;5108745;27;20060;-68
2021/03/24 09:41:49;;;;;;;5.72;2.13;;;;;;;;;;5109745;27;20046;-68
2021/03/24 09:44:23;;;;;;;3.05;1.73;;;;;;;;;;5108103;27;20089;-69
2021/03/24 09:46:51;;;;;;;2.83;1.65;;;;;;;;;;5107243;27;20027;-68
2021/03/24 09:49:23;;;;;;;2.10;1.85;;;;;;;;;;5108026;27;20293;-68
2021/03/24 09:52:10;;;;;;;2.58;2.15;;;;;;;;;;5107119;27;20035;-68
2021/03/24 09:54:36;;;;;;;4.40;2.03;;;;;;;;;;5108938;27;20039;-68
2021/03/24 09:57:02;;;;;;;2.38;2.17;;;;;;;;;;5105514;27;20080;-68
2021/03/24 09:59:49;;;;;;;1.70;1.60;;;;;;;;;;5107354;27;20435;-69
2021/03/24 10:02:24;;;;;;;2.25;2.05;;;;;;;;;;5107611;27;20032;-68
2021/03/24 10:04:53;;;;;;;4.22;2.03;;;;;;;;;;5107385;27;20027;-68
2021/03/24 10:07:24;;;;;;;3.85;1.83;;;;;;;;;;5106618;27;20062;-74
2021/03/24 10:09:55;;;;;;;2.13;1.92;;;;;;;;;;5109917;27;21407;-68
2021/03/24 10:12:44;;;;;;;5.28;1.98;;;;;;;;;;5106333;27;20577;-69
2021/03/24 10:15:14;;;;;;;1.63;1.27;;;;;;;;;;5107215;27;20056;-68
2021/03/24 10:17:42;;;;;;;9.80;2.45;;;;;;;;;;5108458;27;20081;-68
2021/03/24 10:20:14;;;;;;;2.88;2.58;;;;;;;;;;5108322;27;20610;-68
2021/03/24 10:22:46;;;;;;;2.15;1.90;;;;;;;;;;5109731;27;20110;-69
2021/03/24 10:25:15;;;;;;;3.92;1.77;;;;;;;;;;5107210;27;20046;-68
2021/03/24 10:27:45;;;;;;;2.15;1.80;;;;;;;;;;5107549;27;20208;-68
2021/03/24 10:30:14;;;;;;;2.47;1.75;;;;;;;;;;5106469;27;20047;-68
2021/03/24 10:32:46;;;;;;;2.90;2.63;;;;;;;;;;5109783;27;20035;-68
2021/03/24 10:35:27;;;;;;;3.17;2.30;;;;;;;;;;5106518;27;20434;-68
2021/03/24 10:37:57;;;;;;;4.28;1.85;;;;;;;;;;5105721;27;20039;-68
2021/03/24 10:40:26;;;;;;;3.45;2.00;;;;;;;;;;5106254;27;20036;-68
2021/03/24 10:43:13;;;;;;;2.80;1.92;;;;;;;;;;5108043;27;20541;-68
2021/03/24 10:45:44;;;;;;;3.10;2.67;;;;;;;;;;5106318;27;20100;-68
2021/03/24 10:48:27;;;;;;;2.78;1.90;;;;;;;;;;5106195;27;20038;-68
2021/03/24 10:51:09;;;;;;;3.87;3.13;;;;;;;;;;5106577;27;20047;-67
2021/03/24 10:53:36;;;;;;;3.00;2.70;;;;;;;;;;5104245;27;20760;-68
2021/03/24 10:56:17;;;;;;;2.97;2.55;;;;;;;;;;5103667;27;20047;-67
2021/03/24 10:58:56;;;;;;;2.83;2.40;;;;;;;;;;5108627;27;20051;-68
2021/03/24 11:01:27;;;;;;;3.97;3.00;;;;;;;;;;5106643;27;20035;-68
2021/03/24 11:04:04;;;;;;;3.70;3.13;;;;;;;;;;5096659;27;20124;-68
2021/03/24 11:06:30;;;;;;;3.25;2.00;;;;;;;;;;5104803;27;20039;-68
2021/03/24 11:09:16;;;;;;;2.40;1.98;;;;;;;;;;5116758;27;20023;-68
2021/03/24 11:11:44;;;;;;;2.95;2.10;;;;;;;;;;5119904;27;20039;-68
2021/03/24 11:14:22;;;;;;;3.20;2.28;;;;;;;;;;5117703;27;20038;-68
2021/03/24 11:16:52;;;;;;;3.10;2.15;;;;;;;;;;5118141;27;20031;-68
2021/03/24 11:19:27;;;;;;;5.18;2.90;;;;;;;;;;5119858;27;20118;-70
2021/03/24 11:22:08;;;;;;;2.65;2.45;;;;;;;;;;5114409;27;20031;-69
2021/03/24 11:24:48;;;;;;;4.05;2.08;;;;;;;;;;5113386;27;20039;-69
2021/03/24 11:27:16;;;;;;;10.60;3.13;;;;;;;;;;5116870;27;20035;-68
2021/03/24 11:29:48;;;;;;;8.23;3.28;;;;;;;;;;5120125;27;20042;-68
2021/03/24 11:32:17;;;;;;;4.38;3.63;;;;;;;;;;5120251;27;20019;-68
2021/03/24 11:34:52;;;;;;;2.70;1.95;;;;;;;;;;5119810;27;20049;-69
2021/03/24 11:37:27;;;;;;;2.72;2.10;;;;;;;;;;5115098;27;20132;-69
2021/03/24 11:39:56;;;;;;;4.40;2.35;;;;;;;;;;5119089;27;20080;-69
2021/03/24 11:42:23;;;;;;;3.08;2.20;;;;;;;;;;5119045;27;20049;-68
2021/03/24 11:44:52;;;;;;;3.90;2.30;;;;;;;;;;5120953;27;20023;-68
2021/03/24 11:47:30;;;;;;;3.70;2.33;;;;;;;;;;5118582;27;20031;-68
2021/03/24 11:50:05;;;;;;;2.20;2.00;;;;;;;;;;5117389;27;20045;-69
2021/03/24 11:52:40;;;;;;;2.17;1.98;;;;;;;;;;5120492;27;20043;-68
2021/03/24 11:55:25;;;;;;;3.55;2.45;;;;;;;;;;5119816;27;20035;-68
2021/03/24 11:57:54;;;;;;;3.38;1.95;;;;;;;;;;5117097;27;20045;-68
2021/03/24 12:00:30;;;;;;;4.82;2.30;;;;;;;;;;5119992;27;20062;-68
2021/03/24 12:03:06;;;;;;;3.03;2.25;;;;;;;;;;5131263;27;20023;-68
2021/03/24 12:05:32;;;;;;;2.28;1.88;;;;;;;;;;5130402;27;20035;-68
2021/03/24 12:08:05;;;;;;;3.45;2.08;;;;;;;;;;5125484;27;20213;-68
2021/03/24 12:10:38;;;;;;;2.20;2.00;;;;;;;;;;5127949;27;20031;-68
2021/03/24 12:13:20;;;;;;;3.13;1.98;;;;;;;;;;5125728;27;20062;-69
2021/03/24 12:15:58;;;;;;;2.78;1.90;;;;;;;;;;5139615;27;20023;-69
2021/03/24 12:18:24;;;;;;;1.90;1.80;;;;;;;;;;5132042;27;20062;-68
2021/03/24 12:21:02;;;;;;;2.22;1.85;;;;;;;;;;5136005;27;20025;-68
2021/03/24 12:23:30;;;;;;;2.63;1.98;;;;;;;;;;5132901;27;20476;-68
2021/03/24 12:25:57;;;;;;;4.43;2.25;;;;;;;;;;5132637;27;20034;-68
2021/03/24 12:28:34;;;;;;;7.00;3.78;;;;;;;;;;5136305;27;20022;-67
2021/03/24 12:31:05;;;;;;;5.35;3.40;;;;;;;;;;5138744;27;20084;-67
2021/03/24 12:33:32;;;;;;;4.60;2.90;;;;;;;;;;5134857;27;20552;-67
2021/03/24 12:36:02;;;;;;;5.97;4.30;;;;;;;;;;5133905;27;20854;-67
2021/03/24 12:38:29;;;;;;;3.22;2.85;;;;;;;;;;5131739;27;20031;-68
2021/03/24 12:40:56;;;;;;;5.15;3.63;;;;;;;;;;5134123;27;20019;-67
2021/03/24 12:43:27;;;;;;;4.70;2.97;;;;;;;;;;5132187;27;20404;-68
2021/03/24 12:45:53;;;;;;;6.28;3.30;;;;;;;;;;5132816;27;20118;-68
2021/03/24 12:48:29;;;;;;;3.55;2.70;;;;;;;;;;5131074;27;20630;-69
2021/03/24 12:50:55;;;;;;;4.72;3.85;;;;;;;;;;5142762;27;20041;-69
2021/03/24 12:53:45;;;;;;;5.88;3.78;;;;;;;;;;5141180;27;20034;-69
2021/03/24 12:56:23;;;;;;;4.20;3.80;;;;;;;;;;5130193;27;20066;-69
2021/03/24 12:59:13;;;;;;;4.88;3.53;;;;;;;;;;5137991;27;20138;-69
2021/03/24 13:01:45;;;;;;;4.85;3.95;;;;;;;;;;5126806;27;20042;-69
2021/03/24 13:04:20;;;;;;;3.78;3.45;;;;;;;;;;5129280;27;20537;-69
2021/03/24 13:06:52;;;;;;;4.45;3.53;;;;;;;;;;5130446;27;20076;-69
2021/03/24 13:09:37;;;;;;;6.18;4.70;;;;;;;;;;5140299;27;20521;-69
2021/03/24 13:12:09;;;;;;;7.78;6.35;;;;;;;;;;5131346;27;20067;-69
2021/03/24 13:14:54;;;;;;;5.68;4.95;;;;;;;;;;5132285;27;20035;-69
2021/03/24 13:17:38;;;;;;;6.18;5.47;;;;;;;;;;5130327;27;20062;-67
2021/03/24 13:20:19;;;;;;;5.43;3.97;;;;;;;;;;5132032;27;20092;-69
2021/03/24 13:22:53;;;;;;;6.15;4.32;;;;;;;;;;5142277;27;20528;-69
2021/03/24 13:25:25;;;;;;;5.22;4.50;;;;;;;;;;5130240;27;20057;-69
2021/03/24 13:27:57;;;;;;;5.68;4.47;;;;;;;;;;5133931;27;20033;-69
2021/03/24 13:30:43;;;;;;;7.65;5.32;;;;;;;;;;5128451;27;20043;-71
2021/03/24 13:33:13;;;;;;;10.65;5.65;;;;;;;;;;5135849;27;20110;-69
2021/03/24 13:35:51;;;;;;;4.78;4.22;;;;;;;;;;5126519;27;20092;-69
2021/03/24 13:38:26;;;;;;;7.10;5.78;;;;;;;;;;5131661;27;20026;-69
2021/03/24 13:40:52;;;;;;;5.80;3.70;;;;;;;;;;5130802;27;20034;-69
2021/03/24 13:43:18;;;;;;;11.90;4.20;;;;;;;;;;5128585;27;20594;-69
2021/03/24 13:45:53;;;;;;;4.07;3.50;;;;;;;;;;5128757;27;20027;-69
2021/03/24 13:48:29;;;;;;;4.20;3.55;;;;;;;;;;5140032;27;20031;-69
2021/03/24 13:51:15;;;;;;;5.05;3.90;;;;;;;;;;5128021;27;20031;-69
2021/03/24 13:53:44;;;;;;;4.90;3.75;;;;;;;;;;5137557;27;21409;-70
2021/03/24 13:56:13;;;;;;;4.35;3.33;;;;;;;;;;5130670;27;20023;-69
2021/03/24 13:58:45;;;;;;;4.97;3.25;;;;;;;;;;5129851;27;20431;-69
2021/03/24 14:01:41;;;;;;;4.18;3.80;;;;;;;;;;5104290;28;20040;-69
2021/03/24 14:04:26;;;;;;;6.57;4.18;;;;;;;;;;5032609;28;20611;-69
2021/03/24 14:07:00;;;;;;;4.00;3.55;;;;;;;;;;5104102;28;20032;-69
2021/03/24 14:09:26;;;;;;;;;;;;;;;;;;5104937;28;20058;-69
2021/03/24 14:11:52;;;;;;;6.28;5.18;;;;;;;;;;5106179;28;20339;-69
2021/03/24 14:14:25;;;;;;;5.05;4.38;;;;;;;;;;5105719;28;20024;-69
2021/03/24 14:16:58;;;;;;;5.43;4.63;;;;;;;;;;5102013;28;20051;-69
2021/03/24 14:19:30;;;;;;;4.85;3.40;;;;;;;;;;5104066;28;20034;-69
2021/03/24 14:22:07;;;;;;;5.95;3.92;;;;;;;;;;5097534;28;20051;-69
2021/03/24 14:24:42;;;;;;;5.03;4.57;;;;;;;;;;5105950;28;20036;-69
2021/03/24 14:27:28;;;;;;;8.45;4.72;;;;;;;;;;5102285;28;20391;-69
2021/03/24 14:30:07;;;;;;;6.68;5.60;;;;;;;;;;5054309;28;20044;-68
2021/03/24 14:32:33;;;;;;;8.32;5.57;;;;;;;;;;5100257;28;20394;-68
2021/03/24 14:35:20;;;;;;;8.45;4.75;;;;;;;;;;5097327;28;20040;-68
2021/03/24 14:38:02;;;;;;;6.88;5.80;;;;;;;;;;5103583;27;20039;-68
2021/03/24 14:40:28;;;;;;;4.80;4.18;;;;;;;;;;5098152;28;20039;-68
2021/03/24 14:42:54;;;;;;;5.68;5.07;;;;;;;;;;5100848;28;20490;-68
2021/03/24 14:45:20;;;;;;;5.53;4.78;;;;;;;;;;5103051;28;20156;-68
2021/03/24 14:47:49;;;;;;;7.47;5.28;;;;;;;;;;5100055;28;20028;-68
2021/03/24 14:50:24;;;;;;;9.10;5.55;;;;;;;;;;5097448;28;20387;-68
2021/03/24 14:52:50;;;;;;;6.05;4.82;;;;;;;;;;5105104;28;20040;-68
2021/03/24 14:55:25;;;;;;;8.68;5.60;;;;;;;;;;5104709;28;20047;-68
2021/03/24 14:57:51;;;;;;;5.07;4.50;;;;;;;;;;5098908;28;20084;-68
2021/03/24 15:00:17;;;;;;;6.32;5.68;;;;;;;;;;5100552;27;20417;-68
2021/03/24 15:02:44;;;;;;;9.95;5.30;;;;;;;;;;5128097;27;20027;-68
2021/03/24 15:05:31;;;;;;;5.13;4.40;;;;;;;;;;5132104;27;20066;-68
2021/03/24 15:08:14;;;;;;;6.03;5.45;;;;;;;;;;5129204;27;20034;-68
2021/03/24 15:10:52;;;;;;;6.88;5.80;;;;;;;;;;5140570;27;20568;-68
2021/03/24 15:13:27;;;;;;;9.50;7.63;;;;;;;;;;5129668;27;20038;-67
2021/03/24 15:15:59;;;;;;;6.80;6.20;;;;;;;;;;5129523;27;20033;-67